Udo Maru — JM6522 — position and weather

sailwx.info

Track history (hours):
 
Tides and Currents Weather Stations Pressure Air Temp Water Temp Dewpoint Dewpoint Depression Visibility Wind Speed Wind Dir Waves Ship Positions

Udo Maru

Last reported at 2017-Sep-24 19:30 UTC. Time now 2017-Sep-24 19:44 UTC.
Position N 35°34' E 140°03'.

Length 87 m; draft 4.9 m.

Type: Cargo ship. MMSI: 431600499.

Date/timePositionNaut miles runAvg speedWind from/ knotsBaromVisibWave heightAir tempDewpointWater temp
2017-Sep-24 19:30N 35°34' E 140°03'0 0.0
2017-Sep-24 19:00N 35°34' E 140°03'0 0.1
2017-Sep-24 18:15N 35°34' E 140°03'0 0.0
2017-Sep-24 06:54N 35°34' E 140°03'0 0.1
2017-Sep-24 06:24N 35°34' E 140°03'0 0.0
2017-Sep-24 05:44N 35°34' E 140°03'1 1.8
2017-Sep-24 05:26N 35°34' E 140°03'4 9.8
2017-Sep-24 05:00N 35°32' E 139°58'611.0
2017-Sep-24 04:30N 35°29' E 139°52'510.9
2017-Sep-24 04:00N 35°25' E 139°47'510.6
2017-Sep-24 03:30N 35°21' E 139°45'5 9.7
2017-Sep-24 03:00N 35°16' E 139°46'5 9.3
2017-Sep-24 02:30N 35°11' E 139°46'510.6
2017-Sep-24 02:00N 35°07' E 139°43'611.1
2017-Sep-24 01:30N 35°02' E 139°39'612.2
2017-Sep-24 01:00N 34°59' E 139°33'  
2017-Sep-20 03:19N 34°36' E 134°56'410.1
2017-Sep-20 02:53N 34°37' E 135°01'4 9.9
2017-Sep-20 02:30N 34°36' E 135°06'611.6
2017-Sep-20 02:00N 34°36' E 135°13'611.9
2017-Sep-20 01:30N 34°36' E 135°20'510.7
2017-Sep-20 01:00N 34°35' E 135°26'1 0.2
2017-Sep-19 20:11N 34°35' E 135°27'0 0.0
2017-Sep-19 19:59N 34°35' E 135°27'0 0.0
2017-Sep-19 11:59N 34°35' E 135°27'0 0.0
2017-Sep-19 11:01N 34°35' E 135°27'0 0.1
2017-Sep-19 10:52N 34°35' E 135°27'2 4.9
2017-Sep-19 10:30N 34°36' E 135°25'4 8.9
2017-Sep-19 10:00N 34°35' E 135°20'611.3
2017-Sep-19 09:30N 34°30' E 135°15'511.0
2017-Sep-19 09:00N 34°27' E 135°10'611.5
2017-Sep-19 08:30N 34°22' E 135°07'712.5
2017-Sep-19 07:59N 34°16' E 135°03'4 7.8
2017-Sep-19 07:30N 34°15' E 135°07'0 0.4
2017-Sep-19 07:00N 34°15' E 135°07'0 0.0
2017-Sep-19 06:30N 34°15' E 135°07'0 0.1
2017-Sep-19 06:00N 34°15' E 135°07'0 0.0
2017-Sep-19 05:26N 34°15' E 135°07'0 0.0
2017-Sep-19 04:59N 34°15' E 135°07'0 0.0
2017-Sep-19 04:29N 34°15' E 135°07'0 0.0
2017-Sep-19 03:59N 34°15' E 135°07'0 0.0
2017-Sep-19 03:29N 34°15' E 135°07'0 0.0
2017-Sep-19 02:56N 34°15' E 135°07'0 0.0
2017-Sep-19 02:29N 34°15' E 135°07'0 0.0
2017-Sep-19 01:59N 34°15' E 135°07'0 0.0
2017-Sep-19 01:29N 34°15' E 135°07'0 0.1
2017-Sep-19 00:59N 34°15' E 135°07'0 0.0
2017-Sep-19 00:29N 34°15' E 135°07'0 0.0
2017-Sep-18 23:59N 34°15' E 135°07'0 0.0
2017-Sep-18 23:29N 34°15' E 135°07'0 0.0
2017-Sep-18 22:59N 34°15' E 135°07'0 0.0
2017-Sep-18 22:29N 34°15' E 135°07'0 0.0
2017-Sep-18 21:59N 34°15' E 135°07'0 0.0
2017-Sep-18 21:29N 34°15' E 135°07'0 0.0
2017-Sep-18 20:59N 34°15' E 135°07'0 0.0
2017-Sep-18 20:29N 34°15' E 135°07'0 0.0
2017-Sep-18 19:59N 34°15' E 135°07'0 0.0
2017-Sep-18 19:29N 34°15' E 135°07'0 0.0
2017-Sep-18 18:59N 34°15' E 135°07'0 0.0
2017-Sep-18 18:29N 34°15' E 135°07'0 0.0
2017-Sep-18 17:59N 34°15' E 135°07'0 0.0
2017-Sep-18 17:29N 34°15' E 135°07'0 0.0
2017-Sep-18 16:59N 34°15' E 135°07'0 0.0
2017-Sep-18 16:28N 34°15' E 135°07'0 0.0
2017-Sep-18 15:59N 34°15' E 135°07'0 0.0
2017-Sep-18 15:29N 34°15' E 135°07'0 0.0
2017-Sep-18 14:59N 34°15' E 135°07'0 0.0
2017-Sep-18 14:29N 34°15' E 135°07'0 0.0
2017-Sep-18 13:58N 34°15' E 135°07'0 0.0
2017-Sep-18 13:29N 34°15' E 135°07'0 0.0
2017-Sep-18 12:59N 34°15' E 135°07'0 0.0
2017-Sep-18 12:29N 34°15' E 135°07'0 0.0
2017-Sep-18 11:59N 34°15' E 135°07'0 0.0
2017-Sep-18 11:29N 34°15' E 135°07'0 0.0
2017-Sep-18 11:00N 34°15' E 135°07'1 1.3
2017-Sep-18 10:27N 34°15' E 135°06'0 0.0
2017-Sep-18 10:00N 34°15' E 135°06'0 0.0
2017-Sep-18 09:30N 34°15' E 135°06'0 0.0
2017-Sep-18 09:00N 34°15' E 135°06'0 0.1
2017-Sep-18 08:30N 34°15' E 135°06'0 0.0
2017-Sep-18 08:00N 34°15' E 135°06'0 0.1
2017-Sep-18 07:30N 34°15' E 135°06'0 0.1
2017-Sep-18 06:57N 34°15' E 135°06'0 0.0
2017-Sep-18 06:30N 34°15' E 135°06'0 0.0
2017-Sep-18 06:00N 34°15' E 135°06'0 0.1
2017-Sep-18 05:30N 34°15' E 135°06'0 0.0
2017-Sep-18 05:00N 34°15' E 135°06'0 0.1
2017-Sep-18 04:30N 34°14' E 135°06'1 2.8
2017-Sep-18 04:00N 34°15' E 135°05'811.3
2017-Sep-18 03:19N 34°23' E 135°03'413.2
2017-Sep-18 03:00N 34°27' E 135°03'613.0
2017-Sep-18 02:30N 34°33' E 135°03'611.5
2017-Sep-18 01:59N 34°36' E 134°57'  
Track history (hours):
 
Tides and Currents Weather Stations Pressure Air Temp Water Temp Dewpoint Dewpoint Depression Visibility Wind Speed Wind Dir Waves Ship Positions

Udo Maru

Last reported at 2017-Sep-24 19:30 UTC. Time now 2017-Sep-24 19:44 UTC.
Position N 35°34' E 140°03'.

Length 87 m; draft 4.9 m.

Type: Cargo ship. MMSI: 431600499.

Date/timePositionNaut miles runAvg speedWind from/ knotsBaromVisibWave heightAir tempDewpointWater temp
2017-Sep-24 19:30N 35°34' E 140°03'0 0.0
2017-Sep-24 19:00N 35°34' E 140°03'0 0.1
2017-Sep-24 18:15N 35°34' E 140°03'0 0.0
2017-Sep-24 06:54N 35°34' E 140°03'0 0.1
2017-Sep-24 06:24N 35°34' E 140°03'0 0.0
2017-Sep-24 05:44N 35°34' E 140°03'1 1.8
2017-Sep-24 05:26N 35°34' E 140°03'4 9.8
2017-Sep-24 05:00N 35°32' E 139°58'611.0
2017-Sep-24 04:30N 35°29' E 139°52'510.9
2017-Sep-24 04:00N 35°25' E 139°47'510.6
2017-Sep-24 03:30N 35°21' E 139°45'5 9.7
2017-Sep-24 03:00N 35°16' E 139°46'5 9.3
2017-Sep-24 02:30N 35°11' E 139°46'510.6
2017-Sep-24 02:00N 35°07' E 139°43'611.1
2017-Sep-24 01:30N 35°02' E 139°39'612.2
2017-Sep-24 01:00N 34°59' E 139°33'  
2017-Sep-20 03:19N 34°36' E 134°56'410.1
2017-Sep-20 02:53N 34°37' E 135°01'4 9.9
2017-Sep-20 02:30N 34°36' E 135°06'611.6
2017-Sep-20 02:00N 34°36' E 135°13'611.9
2017-Sep-20 01:30N 34°36' E 135°20'510.7
2017-Sep-20 01:00N 34°35' E 135°26'1 0.2
2017-Sep-19 20:11N 34°35' E 135°27'0 0.0
2017-Sep-19 19:59N 34°35' E 135°27'0 0.0
2017-Sep-19 11:59N 34°35' E 135°27'0 0.0
2017-Sep-19 11:01N 34°35' E 135°27'0 0.1
2017-Sep-19 10:52N 34°35' E 135°27'2 4.9
2017-Sep-19 10:30N 34°36' E 135°25'4 8.9
2017-Sep-19 10:00N 34°35' E 135°20'611.3
2017-Sep-19 09:30N 34°30' E 135°15'511.0
2017-Sep-19 09:00N 34°27' E 135°10'611.5
2017-Sep-19 08:30N 34°22' E 135°07'712.5
2017-Sep-19 07:59N 34°16' E 135°03'4 7.8
2017-Sep-19 07:30N 34°15' E 135°07'0 0.4
2017-Sep-19 07:00N 34°15' E 135°07'0 0.0
2017-Sep-19 06:30N 34°15' E 135°07'0 0.1
2017-Sep-19 06:00N 34°15' E 135°07'0 0.0
2017-Sep-19 05:26N 34°15' E 135°07'0 0.0
2017-Sep-19 04:59N 34°15' E 135°07'0 0.0
2017-Sep-19 04:29N 34°15' E 135°07'0 0.0
2017-Sep-19 03:59N 34°15' E 135°07'0 0.0
2017-Sep-19 03:29N 34°15' E 135°07'0 0.0
2017-Sep-19 02:56N 34°15' E 135°07'0 0.0
2017-Sep-19 02:29N 34°15' E 135°07'0 0.0
2017-Sep-19 01:59N 34°15' E 135°07'0 0.0
2017-Sep-19 01:29N 34°15' E 135°07'0 0.1
2017-Sep-19 00:59N 34°15' E 135°07'0 0.0
2017-Sep-19 00:29N 34°15' E 135°07'0 0.0
2017-Sep-18 23:59N 34°15' E 135°07'0 0.0
2017-Sep-18 23:29N 34°15' E 135°07'0 0.0
2017-Sep-18 22:59N 34°15' E 135°07'0 0.0
2017-Sep-18 22:29N 34°15' E 135°07'0 0.0
2017-Sep-18 21:59N 34°15' E 135°07'0 0.0
2017-Sep-18 21:29N 34°15' E 135°07'0 0.0
2017-Sep-18 20:59N 34°15' E 135°07'0 0.0
2017-Sep-18 20:29N 34°15' E 135°07'0 0.0
2017-Sep-18 19:59N 34°15' E 135°07'0 0.0
2017-Sep-18 19:29N 34°15' E 135°07'0 0.0
2017-Sep-18 18:59N 34°15' E 135°07'0 0.0
2017-Sep-18 18:29N 34°15' E 135°07'0 0.0
2017-Sep-18 17:59N 34°15' E 135°07'0 0.0
2017-Sep-18 17:29N 34°15' E 135°07'0 0.0
2017-Sep-18 16:59N 34°15' E 135°07'0 0.0
2017-Sep-18 16:28N 34°15' E 135°07'0 0.0
2017-Sep-18 15:59N 34°15' E 135°07'0 0.0
2017-Sep-18 15:29N 34°15' E 135°07'0 0.0
2017-Sep-18 14:59N 34°15' E 135°07'0 0.0
2017-Sep-18 14:29N 34°15' E 135°07'0 0.0
2017-Sep-18 13:58N 34°15' E 135°07'0 0.0
2017-Sep-18 13:29N 34°15' E 135°07'0 0.0
2017-Sep-18 12:59N 34°15' E 135°07'0 0.0
2017-Sep-18 12:29N 34°15' E 135°07'0 0.0
2017-Sep-18 11:59N 34°15' E 135°07'0 0.0
2017-Sep-18 11:29N 34°15' E 135°07'0 0.0
2017-Sep-18 11:00N 34°15' E 135°07'1 1.3
2017-Sep-18 10:27N 34°15' E 135°06'0 0.0
2017-Sep-18 10:00N 34°15' E 135°06'0 0.0
2017-Sep-18 09:30N 34°15' E 135°06'0 0.0
2017-Sep-18 09:00N 34°15' E 135°06'0 0.1
2017-Sep-18 08:30N 34°15' E 135°06'0 0.0
2017-Sep-18 08:00N 34°15' E 135°06'0 0.1
2017-Sep-18 07:30N 34°15' E 135°06'0 0.1
2017-Sep-18 06:57N 34°15' E 135°06'0 0.0
2017-Sep-18 06:30N 34°15' E 135°06'0 0.0
2017-Sep-18 06:00N 34°15' E 135°06'0 0.1
2017-Sep-18 05:30N 34°15' E 135°06'0 0.0
2017-Sep-18 05:00N 34°15' E 135°06'0 0.1
2017-Sep-18 04:30N 34°14' E 135°06'1 2.8
2017-Sep-18 04:00N 34°15' E 135°05'811.3
2017-Sep-18 03:19N 34°23' E 135°03'413.2
2017-Sep-18 03:00N 34°27' E 135°03'613.0
2017-Sep-18 02:30N 34°33' E 135°03'611.5
2017-Sep-18 01:59N 34°36' E 134°57'  

Dump ship's entire track history